Liberty of The Seas — C6VQ8 — position and weather

sailwx.info

Track history (hours):
 
Tides and Currents Weather Stations Pressure Air Temp Water Temp Dewpoint Dewpoint Depression Visibility Wind Speed Wind Dir Waves Ship Positions

Liberty of The Seas

Last reported at 2017-Jan-17 21:34 UTC. Time now 2017-Jan-19 21:23 UTC.
Position N 20°34' W 086°56'.

Type: Passenger vessel. MMSI: 309436000.

Date/timePositionNaut miles runAvg speedWind from/ knotsBaromVisibWave heightAir tempDewpointWater temp
2017-Jan-17 21:34N 20°34' W 086°56'6 5.5
2017-Jan-17 20:32N 20°29' W 086°59'0 0.0
2017-Jan-17 19:32N 20°29' W 086°59'0 0.0
2017-Jan-17 18:32N 20°29' W 086°59'0 0.0
2017-Jan-17 17:32N 20°29' W 086°59'0 0.0
2017-Jan-17 16:32N 20°29' W 086°59'0 0.0
2017-Jan-17 15:32N 20°29' W 086°59'0 0.0
2017-Jan-17 14:32N 20°29' W 086°59'0 0.0
2017-Jan-17 13:32N 20°29' W 086°59'0 0.0
2017-Jan-17 12:32N 20°29' W 086°59'2 1.6
2017-Jan-17 11:34N 20°31' W 086°58'1616.0
2017-Jan-17 10:33N 20°45' W 086°50'  
2017-Jan-13 23:34N 20°31' W 086°58'2 2.1
2017-Jan-13 22:33N 20°29' W 086°59'0 0.0
2017-Jan-13 21:32N 20°29' W 086°59'0 0.0
2017-Jan-13 20:32N 20°29' W 086°59'0 0.0
2017-Jan-13 19:32N 20°29' W 086°59'0 0.0
2017-Jan-13 18:29N 20°29' W 086°59'0 0.0
2017-Jan-13 17:32N 20°29' W 086°59'0 0.0
2017-Jan-13 16:32N 20°29' W 086°59'0 0.0
2017-Jan-13 15:32N 20°29' W 086°59'0 0.0
2017-Jan-13 14:32N 20°29' W 086°59'0 0.0
2017-Jan-13 13:32N 20°29' W 086°59'1 1.5
2017-Jan-13 12:33N 20°29' W 087°00'  
2017-Jan-08 11:19N 29°20' W 094°46'  
Track history (hours):
 
Tides and Currents Weather Stations Pressure Air Temp Water Temp Dewpoint Dewpoint Depression Visibility Wind Speed Wind Dir Waves Ship Positions

Liberty of The Seas

Last reported at 2017-Jan-17 21:34 UTC. Time now 2017-Jan-19 21:23 UTC.
Position N 20°34' W 086°56'.

Type: Passenger vessel. MMSI: 309436000.

Date/timePositionNaut miles runAvg speedWind from/ knotsBaromVisibWave heightAir tempDewpointWater temp
2017-Jan-17 21:34N 20°34' W 086°56'6 5.5
2017-Jan-17 20:32N 20°29' W 086°59'0 0.0
2017-Jan-17 19:32N 20°29' W 086°59'0 0.0
2017-Jan-17 18:32N 20°29' W 086°59'0 0.0
2017-Jan-17 17:32N 20°29' W 086°59'0 0.0
2017-Jan-17 16:32N 20°29' W 086°59'0 0.0
2017-Jan-17 15:32N 20°29' W 086°59'0 0.0
2017-Jan-17 14:32N 20°29' W 086°59'0 0.0
2017-Jan-17 13:32N 20°29' W 086°59'0 0.0
2017-Jan-17 12:32N 20°29' W 086°59'2 1.6
2017-Jan-17 11:34N 20°31' W 086°58'1616.0
2017-Jan-17 10:33N 20°45' W 086°50'  
2017-Jan-13 23:34N 20°31' W 086°58'2 2.1
2017-Jan-13 22:33N 20°29' W 086°59'0 0.0
2017-Jan-13 21:32N 20°29' W 086°59'0 0.0
2017-Jan-13 20:32N 20°29' W 086°59'0 0.0
2017-Jan-13 19:32N 20°29' W 086°59'0 0.0
2017-Jan-13 18:29N 20°29' W 086°59'0 0.0
2017-Jan-13 17:32N 20°29' W 086°59'0 0.0
2017-Jan-13 16:32N 20°29' W 086°59'0 0.0
2017-Jan-13 15:32N 20°29' W 086°59'0 0.0
2017-Jan-13 14:32N 20°29' W 086°59'0 0.0
2017-Jan-13 13:32N 20°29' W 086°59'1 1.5
2017-Jan-13 12:33N 20°29' W 087°00'  
2017-Jan-08 11:19N 29°20' W 094°46'  

Dump ship's entire track history